Time;durP1;ratioP1;P1;durP2;ratioP2;P2;SDS_P1;SDS_P2;PMS_P1;PMS_P2;Temp;Humidity;BMP_temperature;BMP_pressure;BME280_temperature;BME280_humidity;BME280_pressure;Samples;Min_cycle;Max_cycle;Signal;HPM_P1;HPM_P2
2023/03/28 00:01:01;;;;;;;0.70;0.70;;;21.70;51.80;;;;;;5032230;28;20465;-78
2023/03/28 00:03:34;;;;;;;1.00;0.87;;;21.70;51.80;;;;;;5033217;28;20483;-75
2023/03/28 00:06:08;;;;;;;1.67;0.80;;;21.70;51.90;;;;;;5032401;28;20434;-75
2023/03/28 00:08:38;;;;;;;0.83;0.83;;;21.70;51.80;;;;;;5028024;28;20483;-75
2023/03/28 00:11:09;;;;;;;0.60;0.60;;;21.70;51.80;;;;;;5032908;28;20456;-75
2023/03/28 00:13:38;;;;;;;0.80;0.70;;;21.70;51.80;;;;;;5032972;28;20528;-75
2023/03/28 00:16:08;;;;;;;1.07;0.93;;;21.70;51.80;;;;;;5033458;28;20454;-81
2023/03/28 00:18:37;;;;;;;0.70;0.60;;;21.70;51.80;;;;;;5032359;28;20455;-75
2023/03/28 00:21:22;;;;;;;0.90;0.90;;;21.70;51.80;;;;;;5012344;28;20438;-76
2023/03/28 00:23:52;;;;;;;1.53;1.00;;;21.70;51.70;;;;;;5000532;28;20842;-75
2023/03/28 00:26:23;;;;;;;0.70;0.60;;;21.70;51.70;;;;;;5033072;28;20451;-75
2023/03/28 00:28:52;;;;;;;0.70;0.70;;;21.70;51.80;;;;;;5032237;28;20552;-75
2023/03/28 00:31:21;;;;;;;0.80;0.80;;;21.70;51.70;;;;;;5032835;28;20453;-79
2023/03/28 00:33:49;;;;;;;1.27;0.70;;;21.70;51.70;;;;;;5032313;28;20469;-75
2023/03/28 00:36:21;;;;;;;0.90;0.90;;;21.70;51.60;;;;;;5031955;28;20844;-75
2023/03/28 00:38:50;;;;;;;0.60;0.60;;;21.70;51.60;;;;;;5032271;28;20470;-78
2023/03/28 00:41:20;;;;;;;1.17;0.60;;;21.70;51.60;;;;;;5032668;28;20465;-75
2023/03/28 00:43:51;;;;;;;0.80;0.80;;;21.70;51.50;;;;;;5032965;28;20506;-75
2023/03/28 00:46:23;;;;;;;0.93;0.93;;;21.70;51.50;;;;;;5033076;28;20521;-75
2023/03/28 00:48:56;;;;;;;1.13;0.83;;;21.70;51.50;;;;;;5031663;28;20492;-78
2023/03/28 00:51:30;;;;;;;1.20;0.90;;;21.70;51.40;;;;;;5018233;28;20589;-76
2023/03/28 00:54:02;;;;;;;0.70;0.70;;;21.70;51.50;;;;;;5024423;28;20981;-75
2023/03/28 00:56:35;;;;;;;0.90;0.90;;;21.70;51.50;;;;;;5031986;28;20457;-75
2023/03/28 00:59:08;;;;;;;1.13;0.93;;;21.70;51.40;;;;;;5012655;28;20508;-79
2023/03/28 01:01:36;;;;;;;0.93;0.70;;;21.70;51.50;;;;;;5032073;28;20485;-75
2023/03/28 01:04:08;;;;;;;1.80;0.60;;;21.60;51.50;;;;;;5014375;28;20475;-76
2023/03/28 01:06:45;;;;;;;0.60;0.60;;;21.70;51.40;;;;;;5013715;28;20515;-75
2023/03/28 01:09:18;;;;;;;1.03;0.77;;;21.60;51.40;;;;;;5013844;28;20463;-75
2023/03/28 01:11:51;;;;;;;1.23;1.23;;;21.70;51.40;;;;;;5014678;28;20450;-75
2023/03/28 01:14:23;;;;;;;0.97;0.87;;;21.60;51.40;;;;;;5006456;28;20489;-75
2023/03/28 01:16:55;;;;;;;0.77;0.77;;;21.60;51.30;;;;;;4995239;28;20452;-75
2023/03/28 01:19:42;;;;;;;0.80;0.80;;;21.60;51.30;;;;;;5007731;28;20449;-76
2023/03/28 01:22:37;;;;;;;1.40;0.97;;;21.60;51.30;;;;;;5030967;28;20466;-76
2023/03/28 01:25:42;;;;;;;0.80;0.80;;;21.60;51.30;;;;;;5013127;28;20481;-75
2023/03/28 01:28:26;;;;;;;0.67;0.67;;;21.60;51.30;;;;;;4971242;28;20993;-77
2023/03/28 01:31:32;;;;;;;1.03;0.90;;;21.60;51.20;;;;;;5007829;28;20549;-75
2023/03/28 01:34:50;;;;;;;2.10;0.77;;;21.60;51.20;;;;;;5023982;28;20457;-76
2023/03/28 01:37:28;;;;;;;2.00;1.20;;;21.60;51.20;;;;;;5012117;28;20459;-75
2023/03/28 01:40:10;;;;;;;1.27;0.63;;;21.60;51.20;;;;;;5013744;28;20470;-75
2023/03/28 01:42:52;;;;;;;1.23;0.60;;;21.60;51.10;;;;;;5013983;28;20447;-75
2023/03/28 01:45:28;;;;;;;0.90;0.80;;;21.60;51.10;;;;;;5013496;28;20486;-76
2023/03/28 01:48:06;;;;;;;1.23;0.73;;;21.60;51.10;;;;;;5011898;28;20442;-75
2023/03/28 01:50:41;;;;;;;2.00;1.90;;;21.60;51.10;;;;;;5014483;28;20997;-76
2023/03/28 01:53:18;;;;;;;0.80;0.80;;;21.60;51.10;;;;;;5030666;28;20445;-78
2023/03/28 01:55:52;;;;;;;0.87;0.87;;;21.60;51.10;;;;;;5031211;28;20449;-75
2023/03/28 01:58:28;;;;;;;0.70;0.70;;;21.60;51.10;;;;;;5012620;28;20854;-75
2023/03/28 02:01:06;;;;;;;0.90;0.90;;;21.60;51.10;;;;;;4994236;28;20851;-75
2023/03/28 02:03:39;;;;;;;0.60;0.60;;;21.60;51.00;;;;;;5001233;28;20854;-75
2023/03/28 02:06:15;;;;;;;0.50;0.50;;;21.60;51.10;;;;;;4994908;28;20472;-75
2023/03/28 02:08:47;;;;;;;0.60;0.60;;;21.60;51.00;;;;;;5015381;28;20464;-78
2023/03/28 02:11:28;;;;;;;0.60;0.60;;;21.60;51.00;;;;;;4994232;28;20454;-76
2023/03/28 02:14:19;;;;;;;0.77;0.57;;;21.60;51.00;;;;;;5011969;28;20452;-76
2023/03/28 02:16:52;;;;;;;0.70;0.70;;;21.60;51.00;;;;;;5026422;28;20450;-75
2023/03/28 02:19:40;;;;;;;0.70;0.50;;;21.60;50.90;;;;;;5019902;28;20983;-75
2023/03/28 02:22:32;;;;;;;1.00;1.00;;;21.60;50.90;;;;;;4994007;28;21027;-75
2023/03/28 02:25:27;;;;;;;2.13;0.73;;;21.50;51.00;;;;;;4994046;28;20513;-76
2023/03/28 02:28:01;;;;;;;0.77;0.77;;;21.50;50.90;;;;;;5020775;28;20494;-75
2023/03/28 02:31:01;;;;;;;1.20;0.70;;;21.50;50.90;;;;;;4993594;28;20488;-75
2023/03/28 02:33:36;;;;;;;2.00;0.83;;;21.50;50.90;;;;;;5014063;28;20564;-77
2023/03/28 02:36:29;;;;;;;0.83;0.67;;;21.50;50.90;;;;;;5012867;28;20450;-75
2023/03/28 02:39:30;;;;;;;0.53;0.53;;;21.50;50.90;;;;;;5025636;28;20817;-75
2023/03/28 02:42:19;;;;;;;0.90;0.83;;;21.50;50.90;;;;;;4983048;28;20515;-75
2023/03/28 02:45:10;;;;;;;0.70;0.70;;;21.50;50.90;;;;;;5011630;28;20465;-75
2023/03/28 02:47:44;;;;;;;0.80;0.80;;;21.50;50.90;;;;;;5012963;28;20848;-75
2023/03/28 02:50:24;;;;;;;0.93;0.70;;;21.50;50.90;;;;;;5016763;28;21058;-78
2023/03/28 02:52:59;;;;;;;1.13;0.80;;;21.50;50.80;;;;;;5004713;28;20488;-76
2023/03/28 02:55:37;;;;;;;1.53;1.43;;;21.50;50.80;;;;;;5012811;28;20485;-75
2023/03/28 02:58:37;;;;;;;0.70;0.70;;;21.50;50.80;;;;;;5006039;28;20462;-81
2023/03/28 03:01:06;;;;;;;1.00;0.70;;;21.50;50.80;;;;;;5014995;28;20462;-75
2023/03/28 03:03:36;;;;;;;0.80;0.53;;;21.50;50.80;;;;;;5014881;28;20438;-76
2023/03/28 03:06:05;;;;;;;0.80;0.80;;;21.50;50.80;;;;;;5009329;28;20473;-77
2023/03/28 03:08:33;;;;;;;0.90;0.80;;;21.50;50.80;;;;;;5034366;28;20532;-75
2023/03/28 03:11:01;;;;;;;1.00;0.70;;;21.50;50.80;;;;;;5016474;28;20522;-77
2023/03/28 03:13:30;;;;;;;0.67;0.67;;;21.50;50.80;;;;;;5024725;28;20871;-81
2023/03/28 03:16:04;;;;;;;0.60;0.60;;;21.50;50.80;;;;;;5023142;28;20469;-77
2023/03/28 03:18:33;;;;;;;1.20;0.80;;;21.50;50.80;;;;;;5017371;28;20462;-75
2023/03/28 03:21:01;;;;;;;0.90;0.77;;;21.50;50.80;;;;;;5000385;28;20464;-76
2023/03/28 03:23:30;;;;;;;0.80;0.70;;;21.50;50.70;;;;;;5034643;28;20454;-75
2023/03/28 03:26:00;;;;;;;0.90;0.90;;;21.50;50.70;;;;;;5022494;28;20477;-78
2023/03/28 03:28:36;;;;;;;0.70;0.70;;;21.50;50.70;;;;;;5015019;28;20471;-75
2023/03/28 03:31:08;;;;;;;0.63;0.60;;;21.50;50.80;;;;;;4996803;28;20552;-75
2023/03/28 03:34:06;;;;;;;1.20;1.10;;;21.50;50.70;;;;;;5009129;28;20844;-76
2023/03/28 03:36:41;;;;;;;0.67;0.67;;;21.50;50.70;;;;;;5014516;28;20472;-75
2023/03/28 03:39:09;;;;;;;1.33;0.83;;;21.50;50.70;;;;;;5016244;28;20468;-76
2023/03/28 03:41:38;;;;;;;1.20;1.07;;;21.50;50.70;;;;;;5017579;28;20458;-75
2023/03/28 03:44:06;;;;;;;0.60;0.60;;;21.50;50.70;;;;;;5029490;28;20457;-75
2023/03/28 03:46:36;;;;;;;2.10;1.23;;;21.50;50.70;;;;;;5026388;28;20488;-75
2023/03/28 03:49:04;;;;;;;0.90;0.83;;;21.50;50.70;;;;;;5018443;28;20585;-76
2023/03/28 03:51:33;;;;;;;0.80;0.80;;;21.40;50.70;;;;;;4997264;28;20493;-75
2023/03/28 03:54:01;;;;;;;1.00;0.77;;;21.50;50.70;;;;;;5033014;28;20571;-75
2023/03/28 03:56:36;;;;;;;1.50;1.00;;;21.50;50.60;;;;;;5013277;28;20976;-75
2023/03/28 03:59:05;;;;;;;0.67;0.67;;;21.50;50.60;;;;;;4999846;28;20544;-75
2023/03/28 04:01:40;;;;;;;0.60;0.60;;;21.50;50.60;;;;;;5009566;28;20553;-74
2023/03/28 04:04:29;;;;;;;1.10;1.00;;;21.40;50.60;;;;;;5026820;28;20499;-75
2023/03/28 04:07:05;;;;;;;0.63;0.57;;;21.50;50.60;;;;;;5017570;28;20576;-75
2023/03/28 04:09:34;;;;;;;1.17;0.80;;;21.50;50.60;;;;;;5029530;28;20460;-79
2023/03/28 04:12:04;;;;;;;1.73;0.80;;;21.50;50.60;;;;;;5016918;28;20466;-78
2023/03/28 04:14:41;;;;;;;0.63;0.63;;;21.40;50.60;;;;;;5036745;28;20560;-75
2023/03/28 04:17:33;;;;;;;1.53;0.60;;;21.40;50.60;;;;;;5029347;28;20458;-75
2023/03/28 04:20:12;;;;;;;1.83;0.90;;;21.40;50.60;;;;;;5017903;28;20469;-77
2023/03/28 04:23:04;;;;;;;1.80;0.60;;;21.40;50.60;;;;;;5029359;28;21221;-78
2023/03/28 04:25:33;;;;;;;1.27;0.90;;;21.40;50.60;;;;;;5016299;28;21480;-80
2023/03/28 04:28:08;;;;;;;0.97;0.90;;;21.40;50.60;;;;;;5014946;28;20520;-76
2023/03/28 04:30:42;;;;;;;1.10;1.00;;;21.40;50.60;;;;;;5028076;28;20526;-79
2023/03/28 04:33:32;;;;;;;1.10;0.90;;;21.40;50.50;;;;;;5014515;28;20852;-75
2023/03/28 04:36:04;;;;;;;0.73;0.67;;;21.40;50.60;;;;;;5015318;28;20809;-75
2023/03/28 04:38:35;;;;;;;0.73;0.50;;;21.40;50.60;;;;;;5011499;28;20877;-75
2023/03/28 04:41:26;;;;;;;0.90;0.70;;;21.40;50.60;;;;;;5007700;28;20462;-76
2023/03/28 04:44:04;;;;;;;3.70;1.20;;;21.40;50.50;;;;;;5029369;28;20456;-79
2023/03/28 04:46:38;;;;;;;0.80;0.80;;;21.40;50.50;;;;;;5015359;28;20570;-75
2023/03/28 04:49:13;;;;;;;1.70;0.90;;;21.40;50.50;;;;;;5016025;28;21895;-77
2023/03/28 04:51:42;;;;;;;1.47;0.70;;;21.40;50.50;;;;;;5008386;28;20491;-76
2023/03/28 04:54:10;;;;;;;0.80;0.60;;;21.40;50.60;;;;;;5015316;28;20461;-75
2023/03/28 04:56:48;;;;;;;0.80;0.80;;;21.40;50.70;;;;;;5027175;28;20455;-80
2023/03/28 04:59:23;;;;;;;1.33;1.17;;;21.50;51.10;;;;;;5014325;28;20501;-77
2023/03/28 05:01:52;;;;;;;1.27;0.90;;;21.50;51.30;;;;;;5026755;28;20472;-78
2023/03/28 05:04:44;;;;;;;3.50;0.93;;;21.50;51.50;;;;;;5010365;28;20609;-78
2023/03/28 05:07:14;;;;;;;0.60;0.60;;;21.40;51.70;;;;;;5012793;28;20991;-78
2023/03/28 05:09:42;;;;;;;1.40;0.80;;;21.50;51.90;;;;;;5031956;28;20466;-78
2023/03/28 05:12:11;;;;;;;2.10;1.43;;;21.50;52.00;;;;;;5019824;28;20462;-74
2023/03/28 05:14:59;;;;;;;5.83;1.33;;;21.40;52.20;;;;;;5020540;28;20465;-76
2023/03/28 05:17:27;;;;;;;2.13;1.30;;;21.40;52.30;;;;;;5011921;28;21402;-76
2023/03/28 05:20:06;;;;;;;5.47;1.30;;;21.40;52.40;;;;;;5004122;28;20549;-75
2023/03/28 05:22:39;;;;;;;4.43;1.73;;;21.40;52.50;;;;;;5000352;28;20981;-78
2023/03/28 05:25:10;;;;;;;5.00;2.20;;;21.40;52.60;;;;;;5025994;28;20467;-76
2023/03/28 05:27:39;;;;;;;6.87;2.40;;;21.40;52.70;;;;;;5009415;28;20485;-75
2023/03/28 05:30:10;;;;;;;6.80;1.87;;;21.40;52.90;;;;;;5028068;28;20465;-75
2023/03/28 05:32:38;;;;;;;4.70;2.73;;;21.40;52.90;;;;;;5000912;28;20835;-75
2023/03/28 05:35:13;;;;;;;5.03;2.30;;;21.40;53.00;;;;;;4997208;28;20578;-76
2023/03/28 05:37:44;;;;;;;5.10;1.83;;;21.40;53.00;;;;;;4997499;28;20487;-76
2023/03/28 05:40:15;;;;;;;9.67;3.27;;;21.40;53.10;;;;;;5003230;28;20468;-78
2023/03/28 05:42:44;;;;;;;7.10;1.97;;;21.40;53.10;;;;;;5007641;28;20477;-78
2023/03/28 05:45:19;;;;;;;5.50;1.93;;;21.40;53.20;;;;;;5022109;28;20472;-80
2023/03/28 05:47:49;;;;;;;3.83;1.60;;;21.40;53.20;;;;;;5028553;28;20472;-77
2023/03/28 05:50:21;;;;;;;3.33;1.70;;;21.40;53.20;;;;;;5028386;28;20461;-76
2023/03/28 05:52:50;;;;;;;4.57;1.80;;;21.40;53.30;;;;;;5006962;28;20834;-76
2023/03/28 05:55:18;;;;;;;1.70;1.37;;;21.40;53.30;;;;;;5003001;28;20470;-76
2023/03/28 05:57:48;;;;;;;5.47;1.80;;;21.40;53.30;;;;;;5001304;28;20464;-78
2023/03/28 06:00:19;;;;;;;5.80;1.77;;;21.40;53.40;;;;;;5002133;28;20462;-77
2023/03/28 06:02:50;;;;;;;2.73;1.37;;;21.40;53.40;;;;;;5004334;28;20485;-79
2023/03/28 06:05:23;;;;;;;8.33;1.53;;;21.40;53.40;;;;;;5000109;28;20466;-77
2023/03/28 06:07:52;;;;;;;2.00;1.30;;;21.40;53.40;;;;;;5005322;28;20513;-79
2023/03/28 06:10:21;;;;;;;2.73;1.77;;;21.50;53.50;;;;;;5004693;28;20488;-76
2023/03/28 06:13:02;;;;;;;4.60;2.03;;;21.50;53.70;;;;;;4999251;28;20466;-78
2023/03/28 06:15:31;;;;;;;3.37;1.60;;;21.50;54.00;;;;;;5004935;28;20859;-80
2023/03/28 06:17:59;;;;;;;4.87;1.83;;;21.50;54.20;;;;;;5009776;28;20482;-76
2023/03/28 06:20:29;;;;;;;7.23;2.03;;;21.60;54.30;;;;;;5002715;28;20465;-74
2023/03/28 06:22:58;;;;;;;3.60;1.87;;;21.60;54.50;;;;;;5006813;28;20454;-77
2023/03/28 06:25:26;;;;;;;4.33;2.10;;;21.60;54.60;;;;;;5000755;28;20518;-75
2023/03/28 06:27:54;;;;;;;9.60;2.50;;;21.60;54.80;;;;;;5009313;28;20483;-75
2023/03/28 06:30:23;;;;;;;2.07;1.53;;;21.60;54.80;;;;;;4994565;28;20875;-77
2023/03/28 06:32:52;;;;;;;2.10;1.37;;;21.60;54.90;;;;;;5008279;28;20509;-78
2023/03/28 06:35:20;;;;;;;5.37;1.67;;;21.60;54.80;;;;;;5012801;28;20446;-75
2023/03/28 06:37:50;;;;;;;4.17;1.67;;;21.60;54.80;;;;;;5008127;28;20463;-79
2023/03/28 06:40:25;;;;;;;2.30;1.30;;;21.60;54.70;;;;;;5003587;28;21017;-75
2023/03/28 06:42:53;;;;;;;2.57;1.50;;;21.60;54.70;;;;;;5005934;28;20460;-75
2023/03/28 06:45:44;;;;;;;3.57;1.60;;;21.60;54.60;;;;;;5004407;28;20457;-78
2023/03/28 06:48:15;;;;;;;3.90;1.60;;;21.60;54.60;;;;;;5010101;28;20511;-76
2023/03/28 06:51:02;;;;;;;4.77;1.50;;;21.60;54.60;;;;;;5012048;28;20474;-76
2023/03/28 06:53:32;;;;;;;3.60;2.13;;;21.60;54.50;;;;;;5009561;28;20465;-78
2023/03/28 06:56:02;;;;;;;4.73;1.57;;;21.50;55.00;;;;;;5023581;28;20250;-76
2023/03/28 06:58:33;;;;;;;2.40;1.80;;;21.60;56.20;;;;;;5015408;28;20913;-80
2023/03/28 07:01:07;;;;;;;6.80;2.20;;;21.60;56.30;;;;;;5010009;28;20517;-75
2023/03/28 07:03:43;;;;;;;3.70;1.47;;;21.60;56.60;;;;;;5032020;28;20561;-76
2023/03/28 07:06:19;;;;;;;2.47;1.60;;;21.70;56.70;;;;;;5003482;28;21030;-75
2023/03/28 07:08:49;;;;;;;3.67;1.93;;;21.70;56.70;;;;;;5015921;28;20469;-74
2023/03/28 07:11:21;;;;;;;5.97;2.30;;;21.70;56.90;;;;;;5006057;28;20469;-81
2023/03/28 07:13:50;;;;;;;3.43;1.73;;;21.70;56.90;;;;;;5015087;28;20457;-75
2023/03/28 07:16:20;;;;;;;4.20;1.60;;;21.80;56.90;;;;;;5016318;28;20872;-77
2023/03/28 07:18:50;;;;;;;1.93;1.40;;;21.80;56.90;;;;;;5016546;28;20957;-75
2023/03/28 07:21:22;;;;;;;4.93;2.13;;;21.80;56.90;;;;;;5019812;28;21011;-77
2023/03/28 07:23:55;;;;;;;5.87;1.83;;;21.90;56.90;;;;;;5010921;28;20533;-77
2023/03/28 07:26:27;;;;;;;7.80;2.17;;;21.90;56.90;;;;;;5008648;28;20469;-74
2023/03/28 07:28:56;;;;;;;5.10;1.73;;;21.90;56.80;;;;;;5033486;28;20490;-74
2023/03/28 07:31:25;;;;;;;2.87;1.57;;;22.00;56.80;;;;;;5014779;28;20467;-75
2023/03/28 07:33:56;;;;;;;4.93;1.90;;;22.00;56.60;;;;;;5029537;28;20970;-76
2023/03/28 07:36:27;;;;;;;5.00;1.80;;;22.00;56.60;;;;;;5013762;28;20498;-78
2023/03/28 07:39:02;;;;;;;3.30;1.30;;;22.00;56.50;;;;;;5033370;28;20462;-74
2023/03/28 07:41:30;;;;;;;4.30;1.50;;;22.10;56.40;;;;;;5026503;28;20455;-74
2023/03/28 07:43:59;;;;;;;2.57;2.37;;;22.10;56.30;;;;;;5031845;28;20516;-76
2023/03/28 07:46:27;;;;;;;4.23;1.53;;;22.10;56.20;;;;;;5030898;28;20534;-75
2023/03/28 07:48:59;;;;;;;2.70;1.60;;;22.10;56.10;;;;;;5015289;28;20570;-74
2023/03/28 07:51:27;;;;;;;2.07;1.97;;;22.20;56.00;;;;;;5015490;28;20518;-75
2023/03/28 07:53:55;;;;;;;2.57;1.53;;;22.20;55.90;;;;;;5016676;28;21038;-74
2023/03/28 07:56:25;;;;;;;2.20;1.43;;;22.20;55.80;;;;;;5006796;28;20474;-75
2023/03/28 07:59:13;;;;;;;1.67;1.30;;;22.20;55.70;;;;;;5014845;28;20978;-75
2023/03/28 08:01:45;;;;;;;2.80;1.30;;;22.20;55.70;;;;;;5012225;28;20516;-76
2023/03/28 08:04:14;;;;;;;6.63;1.50;;;22.30;55.60;;;;;;5013927;28;20569;-77
2023/03/28 08:06:59;;;;;;;2.80;1.80;;;22.30;55.60;;;;;;5001813;28;20548;-75
2023/03/28 08:09:27;;;;;;;4.33;1.90;;;22.30;55.50;;;;;;5026088;28;20466;-75
2023/03/28 08:12:13;;;;;;;2.37;2.17;;;22.30;55.30;;;;;;5004080;28;20460;-78
2023/03/28 08:14:42;;;;;;;1.40;1.30;;;22.30;55.20;;;;;;5030490;28;20803;-76
2023/03/28 08:17:11;;;;;;;4.00;1.27;;;22.30;55.10;;;;;;5017180;28;20470;-76
2023/03/28 08:19:39;;;;;;;1.83;1.70;;;22.30;55.00;;;;;;5010065;28;20566;-75
2023/03/28 08:22:15;;;;;;;3.23;1.33;;;22.30;55.00;;;;;;5028894;28;20545;-76
2023/03/28 08:24:50;;;;;;;1.67;1.37;;;22.30;54.90;;;;;;5033273;28;20462;-75
2023/03/28 08:27:23;;;;;;;1.53;1.20;;;22.20;54.80;;;;;;5013635;28;20459;-77
2023/03/28 08:29:59;;;;;;;4.13;2.17;;;22.30;54.80;;;;;;5013413;28;20490;-76
2023/03/28 08:32:29;;;;;;;2.53;1.60;;;22.20;54.80;;;;;;5012737;28;20466;-75
2023/03/28 08:35:01;;;;;;;1.97;0.97;;;22.20;54.70;;;;;;5028673;28;20559;-76
2023/03/28 08:37:31;;;;;;;3.53;1.50;;;22.20;54.70;;;;;;5003087;28;20871;-76
2023/03/28 08:40:09;;;;;;;2.53;1.27;;;22.20;54.70;;;;;;5012645;28;20459;-75
2023/03/28 08:43:02;;;;;;;1.33;1.07;;;22.20;54.70;;;;;;4998127;28;20461;-74
2023/03/28 08:45:40;;;;;;;2.07;1.37;;;22.20;54.70;;;;;;5033005;28;20471;-74
2023/03/28 08:48:17;;;;;;;2.00;1.10;;;22.20;54.80;;;;;;5019993;28;21409;-73
2023/03/28 08:50:50;;;;;;;2.10;1.23;;;22.20;54.90;;;;;;5000254;28;20471;-72
2023/03/28 08:53:26;;;;;;;4.37;1.20;;;22.20;54.90;;;;;;5009181;28;20512;-73
2023/03/28 08:55:56;;;;;;;3.40;1.20;;;22.20;54.90;;;;;;5018493;28;20516;-75
2023/03/28 08:58:30;;;;;;;2.30;1.13;;;22.20;54.80;;;;;;5014371;28;20440;-75
2023/03/28 09:00:58;;;;;;;2.27;1.50;;;22.20;54.80;;;;;;5025595;28;20958;-74
2023/03/28 09:03:27;;;;;;;1.70;1.37;;;22.30;54.70;;;;;;5013776;28;20518;-74
2023/03/28 09:06:06;;;;;;;2.23;1.47;;;22.30;54.70;;;;;;5012553;28;20478;-74
2023/03/28 09:08:56;;;;;;;1.40;1.30;;;22.40;54.60;;;;;;5015367;28;20478;-75
2023/03/28 09:11:35;;;;;;;1.83;1.33;;;22.40;54.50;;;;;;5012432;28;20479;-72
2023/03/28 09:14:20;;;;;;;1.20;1.07;;;22.40;54.40;;;;;;5020609;28;20509;-73
2023/03/28 09:17:03;;;;;;;1.60;1.17;;;22.50;54.30;;;;;;5009483;28;20463;-72
2023/03/28 09:19:48;;;;;;;1.30;1.20;;;22.50;54.20;;;;;;5017513;28;20466;-73
2023/03/28 09:22:44;;;;;;;1.80;1.20;;;22.50;54.20;;;;;;5022612;28;20965;-73
2023/03/28 09:25:31;;;;;;;1.20;1.10;;;22.60;54.10;;;;;;5041636;28;20467;-76
2023/03/28 09:28:10;;;;;;;2.93;1.23;;;22.60;54.10;;;;;;5010204;28;20475;-73
2023/03/28 09:30:45;;;;;;;1.50;0.87;;;22.60;54.00;;;;;;5025272;28;20467;-73
2023/03/28 09:33:17;;;;;;;2.00;1.00;;;22.60;54.00;;;;;;5015754;28;20475;-74
2023/03/28 09:35:48;;;;;;;3.83;1.27;;;22.60;53.90;;;;;;5013881;28;20471;-75
2023/03/28 09:38:21;;;;;;;1.33;1.23;;;22.60;54.00;;;;;;5016407;28;20460;-74
2023/03/28 09:40:55;;;;;;;2.17;1.20;;;22.60;53.80;;;;;;5023001;28;20550;-73
2023/03/28 09:43:31;;;;;;;1.33;0.90;;;22.60;53.80;;;;;;5025917;28;20509;-73
2023/03/28 09:46:30;;;;;;;1.67;1.30;;;22.60;53.80;;;;;;5020609;28;20455;-72
2023/03/28 09:49:26;;;;;;;2.70;1.20;;;22.60;53.90;;;;;;5023260;28;20467;-76
2023/03/28 09:51:59;;;;;;;2.37;1.70;;;22.60;53.80;;;;;;5000691;28;20553;-72
2023/03/28 09:54:30;;;;;;;1.37;1.23;;;22.60;53.60;;;;;;5007749;28;20535;-75
2023/03/28 09:57:00;;;;;;;0.73;0.73;;;22.60;53.60;;;;;;5011791;28;20463;-76
2023/03/28 09:59:45;;;;;;;2.70;1.07;;;22.60;53.50;;;;;;5009412;28;20595;-74
2023/03/28 10:02:28;;;;;;;0.90;0.90;;;22.60;53.40;;;;;;5003384;28;20482;-72
2023/03/28 10:05:00;;;;;;;1.83;1.03;;;22.60;53.40;;;;;;5003886;28;20468;-72
2023/03/28 10:07:42;;;;;;;1.63;0.83;;;22.60;53.30;;;;;;5000670;28;20537;-72
2023/03/28 10:10:23;;;;;;;1.77;1.30;;;22.60;53.40;;;;;;5003619;28;20481;-72
2023/03/28 10:13:04;;;;;;;0.93;0.80;;;22.60;53.30;;;;;;5008787;28;20563;-76
2023/03/28 10:15:41;;;;;;;1.17;1.00;;;22.60;53.40;;;;;;5007805;28;20558;-76
2023/03/28 10:18:31;;;;;;;1.37;1.27;;;22.60;53.30;;;;;;5009229;28;20455;-73
2023/03/28 10:21:21;;;;;;;1.90;0.80;;;22.70;53.30;;;;;;5009437;28;20470;-72
2023/03/28 10:24:02;;;;;;;1.43;0.90;;;22.70;53.20;;;;;;5009336;28;20535;-74
2023/03/28 10:26:33;;;;;;;0.93;0.90;;;22.70;53.20;;;;;;5004005;28;20469;-72
2023/03/28 10:29:07;;;;;;;2.10;1.10;;;22.70;53.20;;;;;;5002416;28;20543;-73
2023/03/28 10:31:38;;;;;;;1.40;0.77;;;22.70;53.20;;;;;;5008367;28;20452;-73
2023/03/28 10:34:27;;;;;;;1.40;0.80;;;22.80;53.10;;;;;;5008860;28;20469;-76
2023/03/28 10:37:03;;;;;;;1.17;1.10;;;22.80;53.00;;;;;;5007712;28;20967;-74
2023/03/28 10:39:59;;;;;;;1.77;0.80;;;22.90;52.90;;;;;;5001300;28;20461;-72
2023/03/28 10:42:49;;;;;;;1.33;0.80;;;22.90;52.80;;;;;;5012135;28;20452;-73
2023/03/28 10:45:49;;;;;;;1.20;0.87;;;23.00;52.70;;;;;;4998357;28;20457;-75
2023/03/28 10:48:32;;;;;;;2.53;1.20;;;23.10;52.60;;;;;;5010209;28;20464;-73
2023/03/28 10:51:13;;;;;;;1.90;0.97;;;23.10;52.50;;;;;;5002691;28;20497;-75
2023/03/28 10:53:54;;;;;;;1.00;0.90;;;23.10;52.40;;;;;;4999296;28;20453;-72
2023/03/28 10:56:32;;;;;;;1.10;0.90;;;23.20;52.40;;;;;;4999251;28;20465;-74
2023/03/28 10:59:21;;;;;;;1.27;1.00;;;23.20;52.30;;;;;;5001399;28;20482;-73
2023/03/28 11:02:04;;;;;;;1.90;1.10;;;23.30;52.10;;;;;;5000416;28;21018;-73
2023/03/28 11:04:54;;;;;;;0.97;0.97;;;23.50;51.90;;;;;;5022498;28;20451;-74
2023/03/28 11:07:32;;;;;;;1.10;0.90;;;23.70;51.50;;;;;;5002653;28;20978;-73
2023/03/28 11:10:23;;;;;;;1.33;0.90;;;24.00;51.10;;;;;;5002315;28;20595;-73
2023/03/28 11:13:25;;;;;;;1.03;1.03;;;24.20;50.60;;;;;;4999425;28;20556;-74
2023/03/28 11:16:00;;;;;;;2.87;1.27;;;24.40;50.20;;;;;;4999063;28;20482;-77
2023/03/28 11:18:50;;;;;;;0.63;0.63;;;24.50;49.90;;;;;;5000644;28;20531;-72
2023/03/28 11:21:31;;;;;;;0.80;0.67;;;24.60;49.70;;;;;;5006027;28;20996;-75
2023/03/28 11:24:17;;;;;;;0.63;0.63;;;24.60;49.60;;;;;;5006452;28;20472;-72
2023/03/28 11:26:58;;;;;;;1.30;0.90;;;24.70;49.50;;;;;;5003355;28;20462;-72
2023/03/28 11:29:48;;;;;;;1.20;0.83;;;24.60;49.40;;;;;;5006518;28;20522;-76
2023/03/28 11:32:25;;;;;;;1.63;0.90;;;24.50;49.70;;;;;;5006216;28;20530;-75
2023/03/28 11:35:04;;;;;;;1.97;0.80;;;24.60;49.50;;;;;;5001081;28;20461;-77
2023/03/28 11:37:37;;;;;;;1.70;1.20;;;24.50;49.40;;;;;;5006818;28;20461;-75
2023/03/28 11:40:18;;;;;;;0.90;0.70;;;24.50;49.30;;;;;;5011855;28;20457;-76
2023/03/28 11:43:06;;;;;;;2.33;0.90;;;24.60;49.20;;;;;;5010959;28;20521;-75
2023/03/28 11:45:40;;;;;;;1.00;0.90;;;24.70;48.90;;;;;;5009081;28;20463;-77
2023/03/28 11:48:25;;;;;;;1.50;1.13;;;24.70;48.80;;;;;;5010862;28;20482;-75
2023/03/28 11:51:04;;;;;;;4.50;1.60;;;24.60;48.50;;;;;;5013329;28;20592;-77
2023/03/28 11:53:47;;;;;;;1.77;1.50;;;24.60;48.50;;;;;;5003972;28;21003;-76
2023/03/28 11:56:27;;;;;;;1.80;1.10;;;24.60;47.50;;;;;;5015918;28;20464;-75
2023/03/28 11:59:12;;;;;;;1.43;1.23;;;24.60;47.00;;;;;;5015728;28;21305;-74
2023/03/28 12:01:44;;;;;;;1.57;1.13;;;24.70;46.40;;;;;;5020168;28;20506;-73
2023/03/28 12:04:18;;;;;;;2.43;1.87;;;24.80;46.00;;;;;;5004558;28;20456;-75
2023/03/28 12:06:52;;;;;;;1.70;1.60;;;24.80;45.20;;;;;;4995567;28;20493;-75
2023/03/28 12:09:37;;;;;;;2.30;1.40;;;24.80;44.70;;;;;;5011893;28;21005;-80
2023/03/28 12:12:12;;;;;;;2.40;1.93;;;24.80;44.70;;;;;;5005203;28;20470;-73
2023/03/28 12:14:52;;;;;;;2.00;1.40;;;24.90;44.70;;;;;;5010890;28;20489;-74
2023/03/28 12:17:36;;;;;;;1.30;1.20;;;24.90;44.90;;;;;;5012624;28;20802;-75
2023/03/28 12:20:11;;;;;;;1.60;1.50;;;25.00;44.60;;;;;;5022144;28;20457;-75
2023/03/28 12:22:44;;;;;;;2.80;1.90;;;25.10;44.50;;;;;;5013506;28;20465;-74
2023/03/28 12:25:27;;;;;;;3.00;1.50;;;25.10;44.50;;;;;;5023320;28;20461;-76
2023/03/28 12:28:04;;;;;;;1.17;1.10;;;25.10;44.90;;;;;;5016626;28;20490;-74
2023/03/28 12:30:37;;;;;;;2.90;1.23;;;25.10;44.90;;;;;;5025878;28;20519;-75
2023/03/28 12:33:17;;;;;;;1.47;1.30;;;25.20;44.70;;;;;;5004830;28;20475;-79
2023/03/28 12:36:03;;;;;;;4.27;1.27;;;25.20;44.70;;;;;;5018666;28;20465;-77
2023/03/28 12:38:38;;;;;;;1.50;1.20;;;25.20;44.80;;;;;;5012621;28;20494;-74
2023/03/28 12:41:29;;;;;;;1.20;1.10;;;25.20;45.00;;;;;;5024112;28;20544;-74
2023/03/28 12:44:04;;;;;;;1.50;1.20;;;25.20;45.00;;;;;;5009039;28;20521;-79
2023/03/28 12:46:44;;;;;;;1.23;1.13;;;25.10;45.00;;;;;;5011568;28;20473;-74
2023/03/28 12:49:20;;;;;;;1.30;1.17;;;25.10;45.10;;;;;;5012181;28;20468;-74
2023/03/28 12:51:52;;;;;;;3.77;1.83;;;25.10;45.10;;;;;;5003137;28;20494;-79
2023/03/28 12:54:25;;;;;;;1.47;1.30;;;25.10;45.10;;;;;;5002201;28;20633;-74
2023/03/28 12:57:12;;;;;;;1.83;1.30;;;25.00;45.30;;;;;;5026915;28;20575;-75
2023/03/28 13:00:25;;;;;;;3.07;1.10;;;25.00;45.50;;;;;;5014442;28;20961;-73
2023/03/28 13:03:42;;;;;;;5.33;1.50;;;25.00;45.60;;;;;;4987673;28;20466;-74
2023/03/28 13:06:20;;;;;;;1.47;1.30;;;24.90;45.80;;;;;;5020766;28;20479;-75
2023/03/28 13:09:04;;;;;;;2.07;1.53;;;24.90;45.90;;;;;;5014949;28;20458;-75
2023/03/28 13:11:40;;;;;;;1.10;1.00;;;24.90;46.10;;;;;;5022587;28;20507;-74
2023/03/28 13:14:28;;;;;;;1.43;1.27;;;24.90;46.10;;;;;;5020783;28;20453;-75
2023/03/28 13:17:01;;;;;;;1.60;0.90;;;24.90;46.20;;;;;;5019201;28;21458;-74
2023/03/28 13:19:46;;;;;;;0.90;0.90;;;24.90;46.20;;;;;;5020506;28;20492;-74
2023/03/28 13:22:30;;;;;;;1.37;1.20;;;24.90;46.10;;;;;;5025650;28;20483;-74
2023/03/28 13:25:26;;;;;;;0.97;0.90;;;24.90;46.20;;;;;;5009522;28;20995;-76
2023/03/28 13:27:59;;;;;;;1.53;1.17;;;24.90;46.30;;;;;;5020277;28;20471;-74
2023/03/28 13:30:29;;;;;;;2.23;1.03;;;24.90;46.50;;;;;;5003447;28;21001;-75
2023/03/28 13:33:02;;;;;;;1.43;1.00;;;25.00;46.60;;;;;;5023192;28;20493;-73
2023/03/28 13:35:45;;;;;;;0.70;0.70;;;25.00;46.90;;;;;;5013439;28;20497;-74
2023/03/28 13:38:15;;;;;;;1.23;1.10;;;25.10;47.20;;;;;;5018700;28;20461;-74